Weather at Fort Lauderdale Hollywood International Airport

Public forecast

Using degrees Fahrenheit for public forecast. Weather courtesy of forecast.io.

Current aviation weather report (METAR) for Fort Lauderdale Hollywood International Airport

Retrieved 2021/04/20 16:53 UTC (37 minutes ago):

KFLL 201653Z 22018G24KT 10SM FEW023 BKN035 BKN110 OVC200 29/23 A2997 RMK AO2 SLP147 T02940233

Aviation forecast (TAF) for Fort Lauderdale Hollywood International Airport

Retrieved 2021/04/20 12:29 UTC (5 hours ago):

TAF KFLL 201125Z 2012/2118 24010KT P6SM VCSH FEW025 SCT040 BKN120 FM201400 20011KT P6SM VCTS SCT025CB BKN050 FM201700 23017G27KT P6SM VCTS SCT020CB BKN040 BKN100 FM210000 25006KT P6SM VCSH FEW025 SCT040 BKN120 FM211200 25010G15KT P6SM VCTS SCT025CB BKN050